Time;durP1;ratioP1;P1;durP2;ratioP2;P2;SDS_P1;SDS_P2;PMS_P1;PMS_P2;Temp;Humidity;BMP_temperature;BMP_pressure;BME280_temperature;BME280_humidity;BME280_pressure;Samples;Min_cycle;Max_cycle;Signal;HPM_P1;HPM_P2
2021/05/10 00:00:20;;;;;;;25.37;11.20;;;;;;;28.75;30.52;158721.94;1635557;87;21222;-88
2021/05/10 00:02:52;;;;;;;22.17;11.08;;;;;;;28.73;30.47;158715.30;1636871;86;21334;-87
2021/05/10 00:05:25;;;;;;;21.97;9.90;;;;;;;28.70;30.50;158708.61;1616825;87;21241;-87
2021/05/10 00:07:57;;;;;;;17.52;9.28;;;;;;;28.71;30.45;158711.28;1636476;87;21237;-87
2021/05/10 00:10:30;;;;;;;17.95;8.85;;;;;;;28.73;30.39;158716.61;1613511;87;21273;-87
2021/05/10 00:13:03;;;;;;;16.77;9.85;;;;;;;28.67;30.41;158700.66;1632534;87;21722;-87
2021/05/10 00:15:36;;;;;;;14.35;8.00;;;;;;;28.64;30.41;158692.66;1631320;87;21261;-86
2021/05/10 00:18:08;;;;;;;17.30;8.43;;;;;;;28.62;30.46;158687.34;1619254;86;21744;-87
2021/05/10 00:20:43;;;;;;;15.40;8.45;;;;;;;28.54;30.47;158666.06;1614540;86;21703;-88
2021/05/10 00:23:17;;;;;;;18.25;10.75;;;;;;;28.56;30.42;158670.03;1619161;86;21255;-87
2021/05/10 00:25:49;;;;;;;26.55;13.75;;;;;;;28.54;30.40;158664.70;1617854;87;21891;-88
2021/05/10 00:28:22;;;;;;;20.85;10.48;;;;;;;28.70;30.27;158707.31;1614150;86;21192;-88
2021/05/10 00:30:54;;;;;;;20.40;11.03;;;;;;;28.53;30.37;158663.39;1616324;86;21381;-88
2021/05/10 00:33:28;;;;;;;18.25;10.05;;;;;;;28.47;30.42;158646.09;1621556;88;21306;-88
2021/05/10 00:36:00;;;;;;;17.15;8.85;;;;;;;28.49;30.39;158651.42;1616055;88;21438;-88
2021/05/10 00:38:33;;;;;;;14.07;7.67;;;;;;;28.51;30.36;158656.75;1615982;88;21673;-88
2021/05/10 00:41:06;;;;;;;15.68;8.03;;;;;;;28.48;30.36;158648.75;1616730;86;21360;-88
2021/05/10 00:43:38;;;;;;;14.75;7.97;;;;;;;28.48;30.30;158650.06;1610889;88;21484;-87
2021/05/10 00:46:10;;;;;;;11.63;6.67;;;;;;;28.45;30.28;158640.75;1602824;88;21792;-87
2021/05/10 00:48:44;;;;;;;12.25;6.92;;;;;;;28.42;30.30;158632.77;1604832;88;21232;-87
2021/05/10 00:51:16;;;;;;;12.68;7.28;;;;;;;28.42;30.38;158632.77;1617122;88;21371;-88
2021/05/10 00:53:49;;;;;;;16.90;8.88;;;;;;;28.44;30.46;158638.09;1579898;90;21794;-88
2021/05/10 00:56:24;;;;;;;13.18;7.80;;;;;;;28.38;30.45;158622.16;1609708;88;21726;-87
2021/05/10 00:58:56;;;;;;;14.25;8.38;;;;;;;28.31;30.49;158603.50;1581280;91;21799;-89
2021/05/10 01:01:29;;;;;;;12.60;7.67;;;;;;;28.29;30.50;158596.84;1581321;89;21772;-88
2021/05/10 01:04:01;;;;;;;17.12;8.80;;;;;;;28.18;30.56;158568.84;1581340;90;21231;-88
2021/05/10 01:06:33;;;;;;;16.15;9.93;;;;;;;28.18;30.68;158567.53;1581182;91;21271;-88
2021/05/10 01:09:07;;;;;;;16.60;8.93;;;;;;;28.11;30.69;158548.94;1619089;88;21797;-88
2021/05/10 01:11:39;;;;;;;15.00;9.35;;;;;;;28.10;30.67;158547.58;1616240;87;21200;-87
2021/05/10 01:14:12;;;;;;;13.95;8.38;;;;;;;28.13;30.62;158554.22;1616059;88;21715;-88
2021/05/10 01:16:45;;;;;;;14.18;8.48;;;;;;;28.14;30.55;158558.23;1606481;88;21863;-88
2021/05/10 01:19:54;;;;;;;18.10;9.50;;;;;;;28.11;30.55;158548.94;1619958;86;21331;-88
2021/05/10 01:22:45;;;;;;;16.35;9.23;;;;;;;28.10;30.52;158546.27;1620526;88;21301;-88
2021/05/10 01:25:22;;;;;;;13.68;8.03;;;;;;;28.08;30.47;158540.94;1606222;89;21219;-88
2021/05/10 01:27:54;;;;;;;15.15;9.15;;;;;;;28.07;30.44;158538.27;1606164;89;21361;-86
2021/05/10 01:30:31;;;;;;;14.73;8.53;;;;;;;28.01;30.46;158522.33;1607369;88;21872;-86
2021/05/10 01:33:04;;;;;;;14.53;8.25;;;;;;;27.96;30.51;158510.31;1610943;88;21215;-86
2021/05/10 01:35:39;;;;;;;15.70;8.70;;;;;;;27.95;30.50;158507.66;1617553;88;21241;-86
2021/05/10 01:38:11;;;;;;;15.90;8.43;;;;;;;27.89;30.47;158490.41;1616140;87;21382;-86
2021/05/10 01:40:48;;;;;;;15.03;8.13;;;;;;;27.85;30.53;158481.06;1614463;86;21420;-86
2021/05/10 01:43:21;;;;;;;17.02;8.73;;;;;;;27.86;30.51;158482.41;1620975;88;21177;-85
2021/05/10 01:45:53;;;;;;;17.27;9.18;;;;;;;27.82;30.55;158473.11;1600779;88;21387;-85
2021/05/10 01:48:25;;;;;;;16.67;8.83;;;;;;;27.80;30.51;158466.42;1610841;88;21865;-85
2021/05/10 01:50:58;;;;;;;17.42;9.45;;;;;;;27.80;30.52;158467.78;1601649;87;21228;-86
2021/05/10 01:53:30;;;;;;;16.50;8.50;;;;;;;27.74;30.51;158451.80;1620751;88;21328;-86
2021/05/10 01:56:02;;;;;;;16.07;8.68;;;;;;;27.72;30.57;158445.16;1608875;88;21824;-86
2021/05/10 01:58:35;;;;;;;17.20;10.15;;;;;;;27.68;30.59;158434.50;1613347;88;21186;-85
2021/05/10 02:01:07;;;;;;;16.15;9.03;;;;;;;27.66;30.58;158430.53;1603480;88;21233;-85
2021/05/10 02:03:41;;;;;;;18.95;8.88;;;;;;;27.65;30.56;158426.56;1619871;86;21197;-85
2021/05/10 02:06:13;;;;;;;22.60;9.93;;;;;;;27.66;30.47;158430.53;1616684;88;21232;-85
2021/05/10 02:08:46;;;;;;;18.37;9.15;;;;;;;27.62;30.54;158418.53;1616937;87;21679;-86
2021/05/10 02:11:19;;;;;;;15.70;9.40;;;;;;;27.56;30.52;158403.89;1620899;88;21189;-85
2021/05/10 02:13:51;;;;;;;24.45;11.22;;;;;;;27.55;30.54;158399.87;1614474;86;21765;-85
2021/05/10 02:16:24;;;;;;;34.33;12.07;;;;;;;27.49;30.58;158385.25;1614555;88;21451;-85
2021/05/10 02:18:58;;;;;;;38.42;13.40;;;;;;;27.50;30.58;158386.61;1620881;87;21319;-85
2021/05/10 02:21:31;;;;;;;44.40;13.72;;;;;;;27.55;30.54;158401.23;1636274;87;21249;-84
2021/05/10 02:24:04;;;;;;;40.33;15.72;;;;;;;27.57;30.49;158405.20;1634555;87;21241;-85
2021/05/10 02:26:37;;;;;;;41.37;15.15;;;;;;;27.58;30.46;158407.86;1632120;87;21791;-84
2021/05/10 02:29:09;;;;;;;39.70;14.23;;;;;;;27.52;30.52;158393.23;1624173;87;21252;-84
2021/05/10 02:31:41;;;;;;;36.05;14.80;;;;;;;27.52;30.52;158393.23;1636243;87;21209;-84
2021/05/10 02:34:14;;;;;;;33.20;13.88;;;;;;;27.53;30.54;158394.59;1634379;87;21213;-84
2021/05/10 02:36:46;;;;;;;30.85;13.43;;;;;;;27.58;30.48;158407.86;1631971;87;21204;-85
2021/05/10 02:39:19;;;;;;;28.70;13.18;;;;;;;27.56;30.54;158403.89;1633686;87;21791;-85
2021/05/10 02:41:51;;;;;;;29.87;15.58;;;;;;;27.54;30.55;158397.25;1628891;87;21242;-85
2021/05/10 02:44:23;;;;;;;25.15;14.87;;;;;;;27.51;30.63;158390.58;1634519;87;21832;-85
2021/05/10 02:46:56;;;;;;;32.13;16.70;;;;;;;27.52;30.70;158391.94;1632146;87;21265;-85
2021/05/10 02:49:29;;;;;;;32.40;15.72;;;;;;;27.45;30.72;158371.98;1632249;86;21229;-85
2021/05/10 02:52:01;;;;;;;33.00;16.62;;;;;;;27.46;30.76;158375.95;1622525;87;21893;-85
2021/05/10 02:54:33;;;;;;;32.83;16.05;;;;;;;27.46;31.00;158374.64;1633389;87;21308;-84
2021/05/10 02:57:06;;;;;;;24.85;13.60;;;;;;;27.44;31.10;158370.63;1636220;87;22407;-85
2021/05/10 02:59:38;;;;;;;21.10;10.53;;;;;;;27.67;30.89;158433.20;1635095;87;21250;-84
2021/05/10 03:02:11;;;;;;;15.93;9.50;;;;;;;27.50;31.10;158386.61;1619700;87;21216;-84
2021/05/10 03:04:43;;;;;;;14.95;8.50;;;;;;;27.48;31.20;158379.97;1634815;85;21777;-84
2021/05/10 03:07:15;;;;;;;15.40;9.13;;;;;;;27.43;31.19;158367.95;1632090;86;21976;-84
2021/05/10 03:09:47;;;;;;;15.18;7.72;;;;;;;27.35;31.26;158346.70;1641895;86;21777;-83
2021/05/10 03:12:20;;;;;;;17.30;8.63;;;;;;;27.35;31.33;158345.41;1632108;87;21264;-84
2021/05/10 03:14:53;;;;;;;13.30;7.60;;;;;;;27.34;31.36;158344.03;1634614;87;21782;-85
2021/05/10 03:17:25;;;;;;;14.95;8.28;;;;;;;27.37;31.36;158350.72;1636192;87;21285;-84
2021/05/10 03:19:57;;;;;;;17.27;8.45;;;;;;;27.33;31.41;158341.37;1632423;87;21251;-85
2021/05/10 03:22:31;;;;;;;14.25;8.90;;;;;;;27.39;31.44;158357.36;1620871;87;21910;-85
2021/05/10 03:25:04;;;;;;;20.97;10.53;;;;;;;27.44;31.51;158369.31;1622487;87;21311;-85
2021/05/10 03:27:40;;;;;;;15.32;9.10;;;;;;;27.47;31.64;158377.31;1623110;87;21779;-84
2021/05/10 03:30:15;;;;;;;18.75;10.25;;;;;;;27.47;31.69;158378.61;1623071;86;21787;-84
2021/05/10 03:32:48;;;;;;;23.27;10.10;;;;;;;27.57;31.61;158406.56;1608981;87;21181;-84
2021/05/10 03:35:21;;;;;;;20.82;11.10;;;;;;;27.53;31.71;158395.91;1619248;86;21242;-85
2021/05/10 03:37:54;;;;;;;18.42;10.63;;;;;;;27.67;31.73;158431.84;1620821;87;22013;-85
2021/05/10 03:40:26;;;;;;;20.85;10.63;;;;;;;27.70;31.72;158439.83;1623145;87;21256;-85
2021/05/10 03:42:59;;;;;;;20.50;10.28;;;;;;;27.78;31.75;158462.45;1623115;87;21280;-84
2021/05/10 03:45:35;;;;;;;23.27;10.28;;;;;;;27.81;31.79;158469.09;1621575;86;21208;-85
2021/05/10 03:48:08;;;;;;;18.77;9.40;;;;;;;27.88;31.75;158489.05;1625636;87;21339;-85
2021/05/10 03:50:40;;;;;;;18.15;10.20;;;;;;;27.96;31.72;158509.00;1621489;87;21894;-85
2021/05/10 03:53:13;;;;;;;17.35;9.48;;;;;;;27.94;31.75;158503.67;1617540;87;21227;-85
2021/05/10 03:55:45;;;;;;;15.48;9.08;;;;;;;27.95;31.73;158507.66;1625048;87;22454;-84
2021/05/10 03:58:18;;;;;;;16.62;8.90;;;;;;;28.03;31.67;158527.61;1615535;86;21258;-85
2021/05/10 04:00:50;;;;;;;14.23;7.47;;;;;;;28.12;31.62;158551.59;1610011;87;21249;-86
2021/05/10 04:03:26;;;;;;;13.83;8.53;;;;;;;28.21;31.56;158575.53;1626542;87;21197;-85
2021/05/10 04:09:01;;;;;;;12.35;8.43;;;;;;;28.32;31.55;158606.16;1630685;86;21335;-86
2021/05/10 04:14:10;;;;;;;10.70;6.70;;;;;;;28.21;31.71;158576.84;1604467;87;21212;-87
2021/05/10 04:16:42;;;;;;;13.75;7.45;;;;;;;28.32;31.65;158604.84;1627289;87;21228;-85
2021/05/10 04:19:14;;;;;;;11.85;6.60;;;;;;;28.37;31.59;158619.48;1616318;87;21418;-86
2021/05/10 04:21:47;;;;;;;12.53;7.20;;;;;;;28.39;31.61;158623.45;1625783;86;21906;-85
2021/05/10 04:24:20;;;;;;;15.65;7.40;;;;;;;28.42;31.55;158632.77;1604524;87;21245;-85
2021/05/10 04:26:52;;;;;;;12.07;7.45;;;;;;;28.49;31.47;158652.72;1620803;87;22101;-88
2021/05/10 04:29:25;;;;;;;13.48;7.53;;;;;;;28.57;31.47;158672.69;1614788;88;21775;-88
2021/05/10 04:31:57;;;;;;;11.65;6.37;;;;;;;28.64;31.39;158692.66;1613016;87;21341;-89
2021/05/10 04:34:29;;;;;;;12.40;6.55;;;;;;;28.70;31.32;158707.31;1633458;86;21352;-90
2021/05/10 04:37:02;;;;;;;16.48;6.55;;;;;;;28.79;31.24;158731.25;1633089;87;21388;-88
2021/05/10 04:39:34;;;;;;;15.93;6.83;;;;;;;28.83;31.22;158743.28;1633180;86;21416;-90
2021/05/10 04:42:07;;;;;;;15.78;8.10;;;;;;;28.88;31.32;158755.25;1632855;87;21285;-91
2021/05/10 04:44:39;;;;;;;15.55;8.08;;;;;;;29.16;31.15;158831.17;1628723;87;21387;-88
2021/05/10 04:47:12;;;;;;;16.52;7.03;;;;;;;29.27;31.11;158860.47;1618989;87;21352;-88
2021/05/10 04:49:44;;;;;;;10.23;6.00;;;;;;;29.34;31.21;158879.09;1632684;88;21332;-88
2021/05/10 04:52:17;;;;;;;12.00;6.25;;;;;;;29.42;31.21;158901.78;1617223;88;21237;-88
2021/05/10 04:54:50;;;;;;;11.57;7.20;;;;;;;29.44;31.33;158907.13;1608125;88;21708;-89
2021/05/10 04:57:22;;;;;;;10.98;6.22;;;;;;;29.54;31.29;158932.39;1620065;88;21233;-87
2021/05/10 04:59:54;;;;;;;10.45;5.95;;;;;;;29.62;31.26;158955.05;1623961;88;21224;-88
2021/05/10 05:02:27;;;;;;;9.80;5.22;;;;;;;29.68;31.24;158969.69;1620005;88;21201;-88
2021/05/10 05:05:01;;;;;;;7.92;4.92;;;;;;;29.44;31.44;158907.13;1628022;88;21273;-87
2021/05/10 05:07:33;;;;;;;6.00;4.50;;;;;;;29.49;31.45;158919.09;1621234;88;21263;-88
2021/05/10 05:10:07;;;;;;;10.45;4.67;;;;;;;29.57;31.41;158940.39;1618729;88;21209;-89
2021/05/10 05:12:40;;;;;;;9.68;5.15;;;;;;;29.60;31.38;158948.41;1626787;87;21210;-86
2021/05/10 05:15:12;;;;;;;7.28;4.10;;;;;;;29.70;31.27;158975.03;1622609;87;21210;-86
2021/05/10 05:17:46;;;;;;;7.30;4.17;;;;;;;29.74;31.38;158985.70;1609076;88;21241;-88
2021/05/10 05:20:18;;;;;;;6.90;3.98;;;;;;;29.78;31.57;158996.33;1617648;88;21250;-87
2021/05/10 05:22:51;;;;;;;10.55;4.75;;;;;;;29.82;31.62;159008.30;1623484;87;21760;-87
2021/05/10 05:25:24;;;;;;;6.28;3.62;;;;;;;29.92;31.51;159033.63;1610789;88;21391;-87
2021/05/10 05:27:56;;;;;;;6.62;3.00;;;;;;;30.00;31.44;159054.97;1602095;88;21209;-87
2021/05/10 05:30:28;;;;;;;5.40;3.33;;;;;;;30.13;31.32;159089.62;1614792;88;21201;-87
2021/05/10 05:33:02;;;;;;;5.58;3.33;;;;;;;30.16;31.28;159097.63;1618690;88;21392;-87
2021/05/10 05:35:34;;;;;;;6.40;3.87;;;;;;;30.25;31.07;159122.97;1618740;88;21206;-88
2021/05/10 05:38:10;;;;;;;5.92;3.33;;;;;;;30.34;30.97;159148.25;1597215;88;21820;-87
2021/05/10 05:40:43;;;;;;;4.40;3.25;;;;;;;30.42;30.80;159169.61;1606715;88;21876;-87
2021/05/10 05:43:16;;;;;;;3.87;2.90;;;;;;;30.51;30.78;159192.27;1606496;88;21400;-87
2021/05/10 05:45:49;;;;;;;7.35;3.58;;;;;;;30.66;30.65;159232.27;1606461;88;21412;-87
2021/05/10 05:48:21;;;;;;;5.58;2.90;;;;;;;30.72;30.45;159248.28;1608007;88;21335;-87
2021/05/10 05:50:54;;;;;;;5.65;2.72;;;;;;;30.82;30.33;159276.25;1618607;87;21401;-87
2021/05/10 05:53:26;;;;;;;3.85;2.33;;;;;;;30.89;30.21;159294.94;1618573;88;22043;-87
2021/05/10 05:56:00;;;;;;;3.95;2.58;;;;;;;30.98;30.14;159318.92;1618615;87;21340;-87
2021/05/10 05:58:33;;;;;;;3.55;2.30;;;;;;;31.06;30.01;159340.30;1597839;88;21340;-87
2021/05/10 06:01:07;;;;;;;3.95;2.35;;;;;;;31.12;29.68;159356.31;1618528;88;21360;-87
2021/05/10 06:03:39;;;;;;;3.10;1.85;;;;;;;31.23;29.53;159384.28;1618684;87;21388;-87
2021/05/10 06:06:11;;;;;;;3.92;2.80;;;;;;;31.24;29.47;159386.97;1598757;88;21360;-86
2021/05/10 06:08:44;;;;;;;2.65;1.67;;;;;;;31.29;29.45;159401.63;1612771;88;21340;-87
2021/05/10 06:11:17;;;;;;;4.33;2.20;;;;;;;31.39;29.48;159428.28;1605256;88;21229;-87
2021/05/10 06:13:50;;;;;;;2.90;1.98;;;;;;;31.43;29.57;159438.97;1608476;87;21828;-87
2021/05/10 06:16:22;;;;;;;2.70;1.90;;;;;;;31.55;29.50;159472.30;1607952;88;21294;-87
2021/05/10 06:18:55;;;;;;;2.42;1.80;;;;;;;31.64;29.38;159495.03;1618111;87;21241;-87
2021/05/10 06:21:27;;;;;;;3.67;1.90;;;;;;;31.82;29.24;159544.39;1607102;88;21202;-87
2021/05/10 06:23:59;;;;;;;2.12;1.60;;;;;;;31.81;29.20;159541.72;1607440;88;21367;-87
2021/05/10 06:26:33;;;;;;;4.10;1.80;;;;;;;31.91;28.92;159567.08;1625072;87;21309;-87
2021/05/10 06:29:05;;;;;;;2.12;1.60;;;;;;;32.04;28.70;159603.09;1617763;86;21561;-87
2021/05/10 06:31:38;;;;;;;2.08;1.60;;;;;;;32.07;28.38;159609.75;1623123;87;21225;-87
2021/05/10 06:34:11;;;;;;;1.82;1.50;;;;;;;32.05;28.25;159605.75;1623162;87;21193;-87
2021/05/10 06:36:44;;;;;;;2.12;1.50;;;;;;;32.15;28.11;159631.17;1627785;87;21292;-87
2021/05/10 06:39:16;;;;;;;3.80;1.60;;;;;;;32.26;28.02;159661.84;1627848;88;21332;-88
2021/05/10 06:41:49;;;;;;;1.62;1.40;;;;;;;32.33;27.94;159681.86;1616948;87;21284;-87
2021/05/10 06:44:21;;;;;;;2.20;1.50;;;;;;;32.43;27.66;159708.55;1619669;88;21189;-87
2021/05/10 06:46:53;;;;;;;2.77;1.80;;;;;;;32.54;27.64;159737.91;1607560;88;21274;-87
2021/05/10 06:49:25;;;;;;;1.87;1.40;;;;;;;32.60;27.54;159752.64;1627870;86;21293;-87
2021/05/10 06:51:58;;;;;;;2.05;1.50;;;;;;;32.65;27.33;159766.00;1628922;87;21249;-87
2021/05/10 06:54:30;;;;;;;3.08;1.45;;;;;;;32.80;27.08;159807.38;1608979;88;21217;-86
2021/05/10 06:57:03;;;;;;;2.50;1.30;;;;;;;32.84;26.88;159818.06;1608734;88;21280;-86
2021/05/10 06:59:37;;;;;;;2.83;1.20;;;;;;;33.24;26.67;159924.91;1616782;87;21241;-87
2021/05/10 07:02:09;;;;;;;3.55;1.42;;;;;;;33.32;26.62;159947.63;1628807;88;21752;-86
2021/05/10 07:04:42;;;;;;;3.55;1.15;;;;;;;33.43;26.64;159975.69;1625797;88;21337;-86
2021/05/10 07:07:14;;;;;;;3.58;1.20;;;;;;;33.51;26.61;159998.34;1627775;88;21827;-86
2021/05/10 07:09:46;;;;;;;2.75;1.15;;;;;;;33.59;26.59;160018.39;1614247;87;21901;-87
2021/05/10 07:12:19;;;;;;;2.45;1.30;;;;;;;33.80;26.43;160075.91;1613514;88;21738;-86
2021/05/10 07:14:52;;;;;;;1.42;1.20;;;;;;;33.98;26.20;160122.66;1611676;88;21226;-85
2021/05/10 07:17:25;;;;;;;1.87;0.93;;;;;;;34.09;26.07;160152.09;1607770;88;21216;-86
2021/05/10 07:19:57;;;;;;;0.80;0.80;;;;;;;34.21;25.82;160185.47;1626376;88;22409;-86
2021/05/10 07:22:30;;;;;;;1.70;1.10;;;;;;;34.28;25.51;160204.22;1623461;87;21217;-85
2021/05/10 07:25:04;;;;;;;1.17;0.93;;;;;;;34.42;25.23;160241.64;1623664;86;21264;-84
2021/05/10 07:27:37;;;;;;;1.15;0.90;;;;;;;34.48;24.89;160257.66;1608163;88;21348;-86
2021/05/10 07:30:10;;;;;;;2.08;0.90;;;;;;;34.33;24.87;160217.55;1605691;88;21753;-85
2021/05/10 07:32:59;;;;;;;2.85;1.10;;;;;;;34.14;25.02;160166.80;1593556;88;21277;-86
2021/05/10 07:35:40;;;;;;;2.33;0.95;;;;;;;34.24;24.89;160194.87;1587234;88;21262;-83
2021/05/10 07:38:20;;;;;;;2.12;1.30;;;;;;;34.32;24.82;160216.23;1589698;88;21255;-86
2021/05/10 07:41:07;;;;;;;1.10;1.00;;;;;;;34.43;24.78;160245.63;1588411;88;21869;-84
2021/05/10 07:43:50;;;;;;;;;;;;;;;34.65;24.84;160303.17;1585634;88;21279;-84
2021/05/10 07:46:24;;;;;;;1.32;1.10;;;;;;;34.86;24.87;160360.63;1560362;89;20293;-84
2021/05/10 07:49:12;;;;;;;1.32;1.00;;;;;;;34.86;25.05;160360.63;1579039;88;21319;-81
2021/05/10 07:51:50;;;;;;;1.47;0.95;;;;;;;35.00;25.12;160398.06;1564773;89;21507;-84
2021/05/10 07:54:22;;;;;;;1.52;1.12;;;;;;;35.11;25.10;160427.53;1563375;89;21411;-85
2021/05/10 07:56:56;;;;;;;0.98;0.95;;;;;;;35.21;24.96;160454.27;1567389;89;21378;-84
2021/05/10 07:59:29;;;;;;;1.77;1.50;;;;;;;35.26;24.85;160468.97;1564503;89;21826;-85
2021/05/10 08:02:02;;;;;;;1.82;1.25;;;;;;;35.38;24.74;160499.75;1562844;89;21319;-85
2021/05/10 08:04:34;;;;;;;1.65;1.35;;;;;;;35.53;24.68;160541.25;1566028;89;21449;-84
2021/05/10 08:07:07;;;;;;;1.57;1.27;;;;;;;35.56;24.34;160547.92;1564180;89;21299;-83
2021/05/10 08:09:40;;;;;;;1.87;1.37;;;;;;;35.75;24.55;160598.78;1567114;89;21271;-84
2021/05/10 08:12:13;;;;;;;1.47;1.17;;;;;;;35.89;24.63;160636.19;1564222;89;21271;-86
2021/05/10 08:14:46;;;;;;;2.42;1.20;;;;;;;36.04;24.69;160676.41;1564962;89;21410;-86
2021/05/10 08:17:19;;;;;;;1.77;0.98;;;;;;;35.98;24.91;160660.31;1562945;89;21304;-86
2021/05/10 08:19:52;;;;;;;1.92;1.10;;;;;;;36.01;24.96;160668.36;1565684;89;21802;-85
2021/05/10 08:22:25;;;;;;;1.20;1.10;;;;;;;36.08;24.77;160689.80;1562895;88;21255;-86
2021/05/10 08:24:58;;;;;;;2.22;1.27;;;;;;;36.18;24.67;160716.55;1562409;89;21414;-87
2021/05/10 08:27:37;;;;;;;2.47;1.15;;;;;;;36.30;24.57;160748.67;1566764;88;21534;-85
2021/05/10 08:30:11;;;;;;;1.20;1.10;;;;;;;36.47;24.63;160792.88;1563062;89;21267;-85
2021/05/10 08:32:44;;;;;;;1.25;0.93;;;;;;;36.58;24.49;160823.62;1562870;89;21902;-86
2021/05/10 08:35:16;;;;;;;1.07;0.98;;;;;;;36.64;24.21;160839.72;1567664;89;21903;-85
2021/05/10 08:37:48;;;;;;;2.40;1.67;;;;;;;36.74;24.02;160865.16;1563438;89;21977;-85
2021/05/10 08:40:21;;;;;;;1.27;1.15;;;;;;;36.78;23.93;160875.84;1560864;89;21279;-83
2021/05/10 08:42:54;;;;;;;1.60;0.95;;;;;;;36.86;23.87;160897.28;1560772;89;21335;-85
2021/05/10 08:45:26;;;;;;;1.25;1.00;;;;;;;36.98;23.62;160929.47;1561141;89;21255;-87
2021/05/10 08:48:00;;;;;;;1.57;0.90;;;;;;;37.07;23.58;160956.25;1559068;89;22479;-87
2021/05/10 08:50:33;;;;;;;1.60;1.32;;;;;;;37.09;23.41;160960.23;1559792;89;21335;-87
2021/05/10 08:53:06;;;;;;;1.25;1.15;;;;;;;37.12;23.27;160968.28;1562046;89;21816;-85
2021/05/10 08:55:39;;;;;;;1.42;1.10;;;;;;;37.15;23.19;160976.33;1562522;89;21305;-86
2021/05/10 08:58:13;;;;;;;1.52;1.25;;;;;;;37.23;22.99;160999.06;1565068;89;21790;-86
2021/05/10 09:00:53;;;;;;;1.80;0.98;;;;;;;37.28;22.72;161012.47;1563271;89;21568;-85
2021/05/10 09:03:25;;;;;;;1.67;1.10;;;;;;;37.31;22.79;161020.52;1566585;89;21835;-85
2021/05/10 09:06:01;;;;;;;0.82;0.82;;;;;;;37.49;22.62;161067.44;1525761;89;21310;-86
2021/05/10 09:08:42;;;;;;;2.87;1.32;;;;;;;37.57;22.56;161088.84;1563365;89;21292;-91
2021/05/10 09:11:20;;;;;;;1.37;0.90;;;;;;;37.67;22.48;161116.98;1565894;89;21275;-86
2021/05/10 09:13:58;;;;;;;1.20;1.10;;;;;;;37.78;22.51;161145.09;1576798;89;21282;-86
2021/05/10 09:16:35;;;;;;;1.65;1.30;;;;;;;37.92;22.81;161182.66;1587264;87;21743;-87
2021/05/10 09:19:05;;;;;;;1.05;0.95;;;;;;;37.97;22.96;161197.39;1597041;87;21283;-88
2021/05/10 09:21:38;;;;;;;2.80;1.00;;;;;;;38.00;22.73;161206.75;1593277;86;21780;-90
2021/05/10 09:24:24;;;;;;;2.95;1.17;;;;;;;37.93;23.00;161186.66;1590159;87;21282;-86
2021/05/10 09:26:58;;;;;;;1.57;1.10;;;;;;;37.97;22.80;161196.02;1587780;87;21303;-91
2021/05/10 09:29:30;;;;;;;1.72;0.98;;;;;;;38.04;22.64;161217.50;1587592;87;21246;-90
2021/05/10 09:32:03;;;;;;;2.72;1.12;;;;;;;37.94;22.75;161189.34;1589213;87;21218;-92
2021/05/10 09:34:36;;;;;;;3.25;1.15;;;;;;;38.12;22.94;161238.91;1587517;88;21797;-90
2021/05/10 09:37:12;;;;;;;2.52;0.90;;;;;;;38.07;22.98;161225.53;1586575;89;21293;-88
2021/05/10 09:39:43;;;;;;;2.08;1.20;;;;;;;38.12;23.11;161238.91;1586997;87;21262;-87
2021/05/10 09:42:17;;;;;;;2.30;1.32;;;;;;;38.16;23.06;161249.64;1588503;87;21296;-85
2021/05/10 09:44:50;;;;;;;1.52;1.02;;;;;;;38.23;23.22;161268.44;1588812;87;21322;-86
2021/05/10 09:47:33;;;;;;;1.62;1.00;;;;;;;38.25;23.41;161272.48;1589139;87;21246;-86
2021/05/10 09:49:59;;;;;;;2.10;1.10;;;;;;;38.40;23.40;161312.64;1586080;87;21218;-85
2021/05/10 09:52:33;;;;;;;2.77;1.20;;;;;;;38.51;23.13;161343.50;1586772;87;21318;-91
2021/05/10 09:55:05;;;;;;;1.70;1.20;;;;;;;38.59;22.77;161363.59;1586984;87;21310;-91
2021/05/10 09:57:43;;;;;;;2.02;1.00;;;;;;;38.63;22.63;161375.66;1573613;89;21259;-88
2021/05/10 10:00:17;;;;;;;1.50;1.15;;;;;;;38.64;22.41;161376.97;1587671;87;21274;-86
2021/05/10 10:02:54;;;;;;;2.10;1.10;;;;;;;38.69;22.51;161390.45;1589400;87;21270;-89
2021/05/10 10:05:25;;;;;;;2.65;1.10;;;;;;;38.79;22.49;161417.25;1583137;89;21310;-89
2021/05/10 10:07:58;;;;;;;1.75;1.10;;;;;;;38.85;22.33;161433.31;1586384;87;21215;-89
2021/05/10 10:10:31;;;;;;;2.17;1.00;;;;;;;39.06;22.11;161490.97;1594213;87;21777;-92
2021/05/10 10:13:04;;;;;;;3.02;1.22;;;;;;;39.15;21.90;161515.12;1597300;87;21274;-94
2021/05/10 10:15:37;;;;;;;1.82;0.98;;;;;;;39.16;21.95;161519.19;1587414;87;21259;-92
2021/05/10 10:18:11;;;;;;;3.47;1.22;;;;;;;39.09;22.00;161499.08;1593032;86;21279;-92
2021/05/10 10:20:45;;;;;;;1.30;0.93;;;;;;;39.26;21.98;161544.63;1589406;88;21221;-90
2021/05/10 10:23:22;;;;;;;1.52;1.10;;;;;;;39.36;21.90;161571.44;1585378;87;21290;-89
2021/05/10 10:25:58;;;;;;;2.08;1.10;;;;;;;39.42;21.87;161588.86;1588623;87;21266;-90
2021/05/10 10:28:33;;;;;;;1.32;1.15;;;;;;;39.37;21.89;161575.48;1594208;88;21238;-91
2021/05/10 10:31:28;;;;;;;2.55;1.42;;;;;;;39.37;21.85;161574.13;1609729;86;21335;-91
2021/05/10 10:34:13;;;;;;;2.70;1.02;;;;;;;39.44;21.55;161592.92;1599452;88;21244;-91
2021/05/10 10:36:52;;;;;;;1.57;1.10;;;;;;;39.54;21.50;161621.09;1582642;88;21878;-91
2021/05/10 10:39:27;;;;;;;1.17;0.98;;;;;;;39.57;21.34;161627.84;1608118;87;21751;-88
2021/05/10 10:42:11;;;;;;;2.17;1.20;;;;;;;39.61;21.31;161638.53;1598650;87;21382;-89
2021/05/10 10:44:46;;;;;;;1.52;0.90;;;;;;;39.62;21.26;161641.22;1598097;87;21999;-88
2021/05/10 10:47:45;;;;;;;1.90;1.30;;;;;;;39.65;21.31;161650.59;1595002;87;21917;-88
2021/05/10 10:50:22;;;;;;;2.05;1.00;;;;;;;39.72;21.51;161669.41;1601634;87;21464;-87
2021/05/10 10:52:57;;;;;;;1.65;1.00;;;;;;;39.83;21.77;161697.53;1605746;87;22647;-87
2021/05/10 10:55:38;;;;;;;1.45;1.15;;;;;;;39.91;22.01;161720.36;1597224;88;21420;-88
2021/05/10 10:58:23;;;;;;;2.05;1.10;;;;;;;39.96;21.98;161735.16;1602762;87;21389;-88
2021/05/10 11:01:12;;;;;;;4.40;1.35;;;;;;;40.03;21.83;161753.97;1599924;87;21319;-87
2021/05/10 11:03:40;;;;;;;3.30;1.10;;;;;;;40.07;22.05;161764.67;1601745;87;21988;-88
2021/05/10 11:06:13;;;;;;;2.25;1.40;;;;;;;40.13;22.02;161779.42;1609531;87;21342;-88
2021/05/10 11:08:56;;;;;;;2.17;1.35;;;;;;;40.23;22.02;161806.25;1608759;87;21255;-91
2021/05/10 11:11:37;;;;;;;2.55;1.40;;;;;;;40.29;21.72;161822.37;1606629;87;21968;-93
2021/05/10 11:14:14;;;;;;;2.37;1.32;;;;;;;40.26;21.33;161815.67;1607202;87;21441;-92
2021/05/10 11:16:53;;;;;;;1.32;1.20;;;;;;;40.37;20.97;161843.88;1609320;87;21242;-92
2021/05/10 11:19:41;;;;;;;1.67;1.17;;;;;;;40.38;20.96;161847.92;1606950;87;21371;-89
2021/05/10 11:22:38;;;;;;;2.05;1.15;;;;;;;40.42;21.00;161858.63;1601610;88;21437;-88
2021/05/10 11:25:41;;;;;;;4.37;1.37;;;;;;;40.46;21.16;161869.37;1604042;87;21243;-90
2021/05/10 11:28:31;;;;;;;2.35;1.27;;;;;;;40.49;21.17;161877.44;1608586;87;21385;-91
2021/05/10 11:31:13;;;;;;;1.82;1.07;;;;;;;40.58;21.08;161901.59;1608518;87;21739;-90
2021/05/10 11:33:57;;;;;;;;;;;;;;;40.55;20.83;161892.20;1609356;87;21830;-89
2021/05/10 11:36:38;;;;;;;1.05;0.93;;;;;;;40.56;20.84;161896.20;1601072;87;20706;-90
2021/05/10 11:39:12;;;;;;;1.30;1.02;;;;;;;40.55;20.70;161892.20;1602386;87;21266;-91
2021/05/10 11:41:45;;;;;;;2.47;1.60;;;;;;;40.56;20.67;161894.89;1604392;87;21291;-90
2021/05/10 11:44:24;;;;;;;3.08;1.55;;;;;;;40.52;20.55;161885.45;1612167;87;21278;-91
2021/05/10 11:46:59;;;;;;;2.30;1.80;;;;;;;40.49;20.69;161877.44;1604637;87;21283;-90
2021/05/10 11:49:40;;;;;;;3.25;2.60;;;;;;;40.49;20.69;161877.44;1597918;87;22116;-90
2021/05/10 11:52:23;;;;;;;3.58;2.58;;;;;;;40.57;20.88;161898.91;1602108;87;21747;-90
2021/05/10 11:54:59;;;;;;;6.08;2.98;;;;;;;40.68;21.04;161928.41;1604634;87;21176;-91
2021/05/10 11:57:34;;;;;;;4.05;2.62;;;;;;;40.65;21.23;161920.34;1599236;88;21833;-90
2021/05/10 12:00:16;;;;;;;4.55;2.90;;;;;;;40.80;21.26;161959.36;1602168;87;21275;-91